Time;durP1;ratioP1;P1;durP2;ratioP2;P2;SDS_P1;SDS_P2;PMS_P1;PMS_P2;Temp;Humidity;BMP_temperature;BMP_pressure;BME280_temperature;BME280_humidity;BME280_pressure;Samples;Min_cycle;Max_cycle;Signal;HPM_P1;HPM_P2
2024/01/30 00:01:34;;;;;;;;;;;;;;;;;;5049432;28;20289;-49
2024/01/30 00:04:00;;;;;;;;;;;;;;;;;;5048313;28;20353;-50
2024/01/30 00:06:25;;;;;;;;;;;;;;;;;;5048723;28;20008;-50
2024/01/30 00:08:51;;;;;;;;;;;;;;;;;;5049824;28;19929;-51
2024/01/30 00:11:16;;;;;;;;;;;;;;;;;;5049869;28;19932;-47
2024/01/30 00:13:42;;;;;;;;;;;;;;;;;;5049477;28;20138;-49
2024/01/30 00:16:08;;;;;;;;;;;;;;;;;;5049182;28;19925;-49
2024/01/30 00:18:33;;;;;;;;;;;;;;;;;;5050749;28;19937;-48
2024/01/30 00:20:59;;;;;;;;;;;;;;;;;;5050177;28;20016;-50
2024/01/30 00:23:25;;;;;;;;;;;;;;;;;;5049579;28;19968;-48
2024/01/30 00:25:50;;;;;;;;;;;;;;;;;;5048478;28;19950;-48
2024/01/30 00:28:16;;;;;;;;;;;;;;;;;;5049663;28;20334;-48
2024/01/30 00:30:41;;;;;;;;;;;;;;;;;;5049641;28;19925;-50
2024/01/30 00:33:08;;;;;;;;;;;;;;;;;;5049443;28;19967;-46
2024/01/30 00:35:33;;;;;;;;;;;;;;;;;;5048701;28;19974;-46
2024/01/30 00:37:59;;;;;;;;;;;;;;;;;;5048992;28;19925;-50
2024/01/30 00:40:24;;;;;;;;;;;;;;;;;;5056347;28;20102;-48
2024/01/30 00:42:50;;;;;;;;;;;;;;;;;;5049551;28;19956;-48
2024/01/30 00:45:15;;;;;;;;;;;;;;;;;;5048854;28;20057;-48
2024/01/30 00:47:41;;;;;;;;;;;;;;;;;;5051218;28;19932;-47
2024/01/30 00:50:06;;;;;;;;;;;;;;;;;;5049669;28;19929;-50
2024/01/30 00:52:32;;;;;;;;;;;;;;;;;;5048335;28;19979;-47
2024/01/30 00:54:58;;;;;;;;;;;;;;;;;;5047975;28;19980;-47
2024/01/30 00:57:24;;;;;;;;;;;;;;;;;;5047556;28;20297;-46
2024/01/30 00:59:49;;;;;;;;;;;;;;;;;;5048191;28;19975;-47
2024/01/30 01:02:17;;;;;;;;;;;;;;;;;;5048633;28;20016;-49
2024/01/30 01:04:42;;;;;;;;;;;;;;;;;;5047413;28;20356;-47
2024/01/30 01:07:08;;;;;;;;;;;;;;;;;;5047828;28;20047;-47
2024/01/30 01:09:33;;;;;;;;;;;;;;;;;;5048591;28;20288;-46
2024/01/30 01:11:59;;;;;;;;;;;;;;;;;;5048752;28;20027;-48
2024/01/30 01:14:25;;;;;;;;;;;;;;;;;;5048343;28;20134;-47
2024/01/30 01:16:50;;;;;;;;;;;;;;;;;;5048305;28;19925;-48
2024/01/30 01:19:16;;;;;;;;;;;;;;;;;;5048874;28;19929;-48
2024/01/30 01:21:41;;;;;;;;;;;;;;;;;;5049182;28;20012;-46
2024/01/30 01:24:07;;;;;;;;;;;;;;;;;;5048297;28;19971;-48
2024/01/30 01:26:32;;;;;;;;;;;;;;;;;;5048245;28;19932;-46
2024/01/30 01:28:58;;;;;;;;;;;;;;;;;;5051065;28;20445;-46
2024/01/30 01:31:24;;;;;;;;;;;;;;;;;;5048700;28;19924;-48
2024/01/30 01:33:50;;;;;;;;;;;;;;;;;;5048386;28;19931;-48
2024/01/30 01:36:15;;;;;;;;;;;;;;;;;;5047711;28;20023;-48
2024/01/30 01:38:41;;;;;;;;;;;;;;;;;;5047663;28;20046;-47
2024/01/30 01:41:06;;;;;;;;;;;;;;;;;;5049583;28;19928;-46
2024/01/30 01:43:32;;;;;;;;;;;;;;;;;;5047867;28;20002;-48
2024/01/30 01:45:57;;;;;;;;;;;;;;;;;;5047341;28;19932;-48
2024/01/30 01:48:22;;;;;;;;;;;;;;;;;;5047578;28;19983;-47
2024/01/30 01:50:48;;;;;;;;;;;;;;;;;;5051927;28;20035;-48
2024/01/30 01:53:14;;;;;;;;;;;;;;;;;;5047032;28;20372;-48
2024/01/30 01:55:39;;;;;;;;;;;;;;;;;;5046818;28;19987;-47
2024/01/30 01:58:04;;;;;;;;;;;;;;;;;;5047444;28;19932;-47
2024/01/30 02:00:31;;;;;;;;;;;;;;;;;;5047932;28;19978;-46
2024/01/30 02:02:56;;;;;;;;;;;;;;;;;;5047880;28;19968;-48
2024/01/30 02:05:21;;;;;;;;;;;;;;;;;;5046699;28;19994;-46
2024/01/30 02:07:47;;;;;;;;;;;;;;;;;;5047747;28;19974;-46
2024/01/30 02:10:12;;;;;;;;;;;;;;;;;;5048479;28;20017;-47
2024/01/30 02:12:38;;;;;;;;;;;;;;;;;;5048325;28;19924;-45
2024/01/30 02:15:04;;;;;;;;;;;;;;;;;;5046790;28;19990;-47
2024/01/30 02:17:30;;;;;;;;;;;;;;;;;;5047182;28;19955;-47
2024/01/30 02:19:55;;;;;;;;;;;;;;;;;;5047661;28;20024;-47
2024/01/30 02:22:21;;;;;;;;;;;;;;;;;;5048364;28;19967;-46
2024/01/30 02:24:46;;;;;;;;;;;;;;;;;;5046963;28;19960;-47
2024/01/30 02:27:12;;;;;;;;;;;;;;;;;;5046923;28;20120;-46
2024/01/30 02:29:37;;;;;;;;;;;;;;;;;;5047244;28;19975;-48
2024/01/30 02:32:03;;;;;;;;;;;;;;;;;;5047934;28;19955;-46
2024/01/30 02:34:28;;;;;;;;;;;;;;;;;;5046969;28;19924;-50
2024/01/30 02:36:54;;;;;;;;;;;;;;;;;;5046664;28;20063;-46
2024/01/30 02:39:19;;;;;;;;;;;;;;;;;;5046834;28;19972;-48
2024/01/30 02:41:45;;;;;;;;;;;;;;;;;;5047783;28;19924;-46
2024/01/30 02:44:10;;;;;;;;;;;;;;;;;;5049301;28;20292;-48
2024/01/30 02:46:36;;;;;;;;;;;;;;;;;;5045735;28;19951;-46
2024/01/30 02:49:01;;;;;;;;;;;;;;;;;;5046065;28;19976;-47
2024/01/30 02:51:27;;;;;;;;;;;;;;;;;;5047532;28;20306;-48
2024/01/30 02:53:52;;;;;;;;;;;;;;;;;;5046459;28;19963;-46
2024/01/30 02:56:18;;;;;;;;;;;;;;;;;;5046231;28;20094;-46
2024/01/30 02:58:43;;;;;;;;;;;;;;;;;;5047009;28;19924;-49
2024/01/30 03:01:09;;;;;;;;;;;;;;;;;;5047105;28;20288;-49
2024/01/30 03:03:35;;;;;;;;;;;;;;;;;;5047059;28;20006;-50
2024/01/30 03:06:01;;;;;;;;;;;;;;;;;;5046353;28;19925;-46
2024/01/30 03:08:27;;;;;;;;;;;;;;;;;;5047027;28;19936;-47
2024/01/30 03:10:52;;;;;;;;;;;;;;;;;;5047239;28;20460;-46
2024/01/30 03:13:18;;;;;;;;;;;;;;;;;;5046823;28;19964;-51
2024/01/30 03:15:43;;;;;;;;;;;;;;;;;;5046655;28;20373;-46
2024/01/30 03:18:09;;;;;;;;;;;;;;;;;;5049062;28;19956;-46
2024/01/30 03:20:34;;;;;;;;;;;;;;;;;;5047252;28;20467;-48
2024/01/30 03:23:00;;;;;;;;;;;;;;;;;;5045888;28;19932;-46
2024/01/30 03:25:25;;;;;;;;;;;;;;;;;;5045014;28;19968;-45
2024/01/30 03:27:51;;;;;;;;;;;;;;;;;;5046058;28;19925;-46
2024/01/30 03:30:17;;;;;;;;;;;;;;;;;;5045826;28;19983;-47
2024/01/30 03:32:42;;;;;;;;;;;;;;;;;;5049714;28;19924;-47
2024/01/30 03:35:08;;;;;;;;;;;;;;;;;;5049232;28;19928;-46
2024/01/30 03:37:33;;;;;;;;;;;;;;;;;;5049312;28;20015;-47
2024/01/30 03:39:59;;;;;;;;;;;;;;;;;;5050443;28;19990;-47
2024/01/30 03:42:24;;;;;;;;;;;;;;;;;;5050224;28;20115;-47
2024/01/30 03:44:53;;;;;;;;;;;;;;;;;;5053193;28;19960;-47
2024/01/30 03:47:18;;;;;;;;;;;;;;;;;;5049510;28;20213;-47
2024/01/30 03:49:44;;;;;;;;;;;;;;;;;;5050092;28;20018;-46
2024/01/30 03:52:09;;;;;;;;;;;;;;;;;;5050663;28;20031;-46
2024/01/30 03:54:35;;;;;;;;;;;;;;;;;;5049415;28;19964;-46
2024/01/30 03:57:00;;;;;;;;;;;;;;;;;;5049873;28;20015;-51
2024/01/30 03:59:26;;;;;;;;;;;;;;;;;;5049814;28;19952;-47
2024/01/30 04:01:51;;;;;;;;;;;;;;;;;;5050011;28;19925;-47
2024/01/30 04:04:17;;;;;;;;;;;;;;;;;;5049773;28;20399;-46
2024/01/30 04:06:42;;;;;;;;;;;;;;;;;;5049362;28;19931;-48
2024/01/30 04:09:08;;;;;;;;;;;;;;;;;;5049735;28;20031;-46
2024/01/30 04:11:33;;;;;;;;;;;;;;;;;;5049750;28;19970;-47
2024/01/30 04:13:59;;;;;;;;;;;;;;;;;;5048787;28;20020;-46
2024/01/30 04:16:24;;;;;;;;;;;;;;;;;;5049003;28;19948;-47
2024/01/30 04:18:50;;;;;;;;;;;;;;;;;;5050301;28;20484;-46
2024/01/30 04:21:15;;;;;;;;;;;;;;;;;;5049582;28;19960;-47
2024/01/30 04:23:41;;;;;;;;;;;;;;;;;;5048931;28;19936;-47
2024/01/30 04:26:06;;;;;;;;;;;;;;;;;;5047792;28;19935;-46
2024/01/30 04:28:32;;;;;;;;;;;;;;;;;;5048267;28;20020;-47
2024/01/30 04:30:57;;;;;;;;;;;;;;;;;;5048824;28;19974;-47
2024/01/30 04:33:23;;;;;;;;;;;;;;;;;;5049380;28;20376;-48
2024/01/30 04:35:48;;;;;;;;;;;;;;;;;;5048512;28;20008;-46
2024/01/30 04:38:14;;;;;;;;;;;;;;;;;;5051540;28;20280;-47
2024/01/30 04:40:39;;;;;;;;;;;;;;;;;;5049606;28;19970;-47
2024/01/30 04:43:05;;;;;;;;;;;;;;;;;;5049008;28;20297;-46
2024/01/30 04:45:30;;;;;;;;;;;;;;;;;;5051506;28;19989;-47
2024/01/30 04:47:56;;;;;;;;;;;;;;;;;;5052786;28;20014;-47
2024/01/30 04:50:21;;;;;;;;;;;;;;;;;;5049334;28;19931;-48
2024/01/30 04:52:47;;;;;;;;;;;;;;;;;;5049324;28;20015;-47
2024/01/30 04:55:12;;;;;;;;;;;;;;;;;;5052645;28;19931;-48
2024/01/30 04:57:38;;;;;;;;;;;;;;;;;;5050670;28;20355;-46
2024/01/30 05:00:03;;;;;;;;;;;;;;;;;;5051852;28;19925;-47
2024/01/30 05:02:28;;;;;;;;;;;;;;;;;;5049427;28;19980;-47
2024/01/30 05:04:54;;;;;;;;;;;;;;;;;;5048301;28;19924;-46
2024/01/30 05:07:20;;;;;;;;;;;;;;;;;;5048516;28;20007;-46
2024/01/30 05:09:45;;;;;;;;;;;;;;;;;;5050139;28;19933;-46
2024/01/30 05:12:11;;;;;;;;;;;;;;;;;;5048578;28;20372;-46
2024/01/30 05:14:36;;;;;;;;;;;;;;;;;;5047592;28;20031;-46
2024/01/30 05:17:03;;;;;;;;;;;;;;;;;;5047672;28;19968;-46
2024/01/30 05:19:28;;;;;;;;;;;;;;;;;;5048345;28;19998;-48
2024/01/30 05:21:54;;;;;;;;;;;;;;;;;;5048416;28;19976;-46
2024/01/30 05:24:19;;;;;;;;;;;;;;;;;;5046861;28;19925;-46
2024/01/30 05:26:48;;;;;;;;;;;;;;;;;;5049099;28;20313;-49
2024/01/30 05:29:13;;;;;;;;;;;;;;;;;;5048357;28;19936;-47
2024/01/30 05:31:38;;;;;;;;;;;;;;;;;;5048616;28;19980;-47
2024/01/30 05:34:04;;;;;;;;;;;;;;;;;;5048176;28;19932;-46
2024/01/30 05:36:30;;;;;;;;;;;;;;;;;;5048476;28;19971;-46
2024/01/30 05:38:55;;;;;;;;;;;;;;;;;;5048186;28;19925;-46
2024/01/30 05:41:21;;;;;;;;;;;;;;;;;;5048822;28;19933;-48
2024/01/30 05:43:46;;;;;;;;;;;;;;;;;;5048355;28;19979;-47
2024/01/30 05:46:12;;;;;;;;;;;;;;;;;;5051330;28;19924;-45
2024/01/30 05:48:37;;;;;;;;;;;;;;;;;;5050128;28;20371;-46
2024/01/30 05:51:03;;;;;;;;;;;;;;;;;;5048283;28;20382;-46
2024/01/30 05:53:29;;;;;;;;;;;;;;;;;;5047452;28;19960;-48
2024/01/30 05:55:54;;;;;;;;;;;;;;;;;;5052804;28;20026;-46
2024/01/30 05:58:21;;;;;;;;;;;;;;;;;;5050804;28;19924;-46
2024/01/30 06:00:46;;;;;;;;;;;;;;;;;;5047151;28;20385;-46
2024/01/30 06:03:12;;;;;;;;;;;;;;;;;;5047992;28;19924;-48
2024/01/30 06:05:37;;;;;;;;;;;;;;;;;;5050460;28;20280;-47
2024/01/30 06:08:03;;;;;;;;;;;;;;;;;;5051747;28;19971;-47
2024/01/30 06:10:28;;;;;;;;;;;;;;;;;;5054546;28;19938;-47
2024/01/30 06:12:54;;;;;;;;;;;;;;;;;;5050686;28;19986;-46
2024/01/30 06:15:19;;;;;;;;;;;;;;;;;;5049122;28;19964;-48
2024/01/30 06:17:46;;;;;;;;;;;;;;;;;;5050008;28;19925;-46
2024/01/30 06:20:11;;;;;;;;;;;;;;;;;;5049438;28;20444;-48
2024/01/30 06:22:37;;;;;;;;;;;;;;;;;;5049069;28;20071;-47
2024/01/30 06:25:02;;;;;;;;;;;;;;;;;;5055503;28;20412;-49
2024/01/30 06:27:28;;;;;;;;;;;;;;;;;;5055238;28;20012;-46
2024/01/30 06:29:53;;;;;;;;;;;;;;;;;;5053123;28;19931;-47
2024/01/30 06:32:18;;;;;;;;;;;;;;;;;;5049868;28;19976;-49
2024/01/30 06:34:44;;;;;;;;;;;;;;;;;;5049376;28;20458;-47
2024/01/30 06:37:09;;;;;;;;;;;;;;;;;;5053000;28;20323;-46
2024/01/30 06:39:35;;;;;;;;;;;;;;;;;;5051398;28;19925;-49
2024/01/30 06:42:00;;;;;;;;;;;;;;;;;;5059042;28;19999;-47
2024/01/30 06:44:26;;;;;;;;;;;;;;;;;;5051228;28;19935;-48
2024/01/30 06:46:51;;;;;;;;;;;;;;;;;;5054101;28;19924;-47
2024/01/30 06:49:17;;;;;;;;;;;;;;;;;;5052412;28;19993;-46
2024/01/30 06:51:42;;;;;;;;;;;;;;;;;;5052565;28;19925;-49
2024/01/30 06:54:08;;;;;;;;;;;;;;;;;;5050623;28;20032;-47
2024/01/30 06:56:34;;;;;;;;;;;;;;;;;;5054210;28;19931;-50
2024/01/30 06:59:00;;;;;;;;;;;;;;;;;;5052204;28;19932;-45
2024/01/30 07:01:26;;;;;;;;;;;;;;;;;;5051233;28;19924;-48
2024/01/30 07:03:51;;;;;;;;;;;;;;;;;;5056817;28;19960;-46
2024/01/30 07:06:17;;;;;;;;;;;;;;;;;;5056066;28;19935;-47
2024/01/30 07:08:42;;;;;;;;;;;;;;;;;;5057916;28;20830;-48
2024/01/30 07:11:08;;;;;;;;;;;;;;;;;;5060971;28;19951;-46
2024/01/30 07:13:33;;;;;;;;;;;;;;;;;;5063049;28;19933;-48
2024/01/30 07:15:59;;;;;;;;;;;;;;;;;;5062668;28;20443;-47
2024/01/30 07:18:24;;;;;;;;;;;;;;;;;;5058078;28;19971;-45
2024/01/30 07:20:50;;;;;;;;;;;;;;;;;;5063098;28;20016;-47
2024/01/30 07:23:16;;;;;;;;;;;;;;;;;;5057541;28;19924;-44
2024/01/30 07:25:41;;;;;;;;;;;;;;;;;;5060425;28;20014;-44
2024/01/30 07:28:08;;;;;;;;;;;;;;;;;;5050379;28;20530;-46
2024/01/30 07:30:34;;;;;;;;;;;;;;;;;;5058729;28;19935;-45
2024/01/30 07:32:59;;;;;;;;;;;;;;;;;;5063742;28;20341;-45
2024/01/30 07:35:24;;;;;;;;;;;;;;;;;;5057179;28;19932;-45
2024/01/30 07:37:50;;;;;;;;;;;;;;;;;;5057788;28;19925;-44
2024/01/30 07:40:16;;;;;;;;;;;;;;;;;;5059019;28;20003;-57
2024/01/30 07:42:41;;;;;;;;;;;;;;;;;;5053285;28;20011;-57
2024/01/30 07:45:07;;;;;;;;;;;;;;;;;;5060213;28;19933;-57
2024/01/30 07:47:32;;;;;;;;;;;;;;;;;;5057264;28;20023;-56
2024/01/30 07:49:58;;;;;;;;;;;;;;;;;;5055288;28;19935;-57
2024/01/30 07:52:23;;;;;;;;;;;;;;;;;;5054979;28;19970;-56
2024/01/30 07:54:49;;;;;;;;;;;;;;;;;;5061196;28;20291;-57
2024/01/30 07:57:15;;;;;;;;;;;;;;;;;;5061386;28;19928;-57
2024/01/30 07:59:40;;;;;;;;;;;;;;;;;;5059420;28;20333;-61
2024/01/30 08:02:05;;;;;;;;;;;;;;;;;;5059158;28;20034;-59
2024/01/30 08:04:31;;;;;;;;;;;;;;;;;;5058156;28;19929;-55
2024/01/30 08:06:57;;;;;;;;;;;;;;;;;;5050918;28;20664;-58
2024/01/30 08:09:22;;;;;;;;;;;;;;;;;;5049203;28;19940;-59
2024/01/30 08:11:48;;;;;;;;;;;;;;;;;;5054573;28;19933;-59
2024/01/30 08:14:14;;;;;;;;;;;;;;;;;;5052561;28;19971;-60
2024/01/30 08:16:39;;;;;;;;;;;;;;;;;;5055147;28;19932;-59
2024/01/30 08:19:05;;;;;;;;;;;;;;;;;;5055702;28;19971;-59
2024/01/30 08:21:35;;;;;;;;;;;;;;;;;;5055143;28;20022;-59
2024/01/30 08:24:03;;;;;;;;;;;;;;;;;;5053913;28;19936;-59
2024/01/30 08:26:29;;;;;;;;;;;;;;;;;;5055883;28;19931;-56
2024/01/30 08:28:54;;;;;;;;;;;;;;;;;;5054110;28;20070;-47
2024/01/30 08:31:20;;;;;;;;;;;;;;;;;;5057768;28;20631;-45
2024/01/30 08:33:45;;;;;;;;;;;;;;;;;;5052023;28;19969;-45
2024/01/30 08:36:12;;;;;;;;;;;;;;;;;;5052369;28;19979;-45
2024/01/30 08:38:38;;;;;;;;;;;;;;;;;;5056058;28;20024;-46
2024/01/30 08:41:03;;;;;;;;;;;;;;;;;;5054110;28;19975;-44
2024/01/30 08:43:29;;;;;;;;;;;;;;;;;;5055368;28;20380;-44
2024/01/30 08:45:54;;;;;;;;;;;;;;;;;;5052335;28;19933;-49
2024/01/30 08:48:21;;;;;;;;;;;;;;;;;;5051740;28;19943;-57
2024/01/30 08:50:46;;;;;;;;;;;;;;;;;;5054320;28;19937;-57
2024/01/30 08:53:12;;;;;;;;;;;;;;;;;;5051174;28;19932;-57
2024/01/30 08:55:38;;;;;;;;;;;;;;;;;;5055205;28;20391;-57
2024/01/30 08:58:05;;;;;;;;;;;;;;;;;;5056972;28;20375;-58
2024/01/30 09:00:30;;;;;;;;;;;;;;;;;;5060039;28;19924;-58
2024/01/30 09:02:55;;;;;;;;;;;;;;;;;;5058532;28;20163;-58
2024/01/30 09:05:21;;;;;;;;;;;;;;;;;;4978794;28;20301;-56
2024/01/30 09:07:46;;;;;;;;;;;;;;;;;;4970073;28;19930;-57
2024/01/30 09:10:12;;;;;;;;;;;;;;;;;;4974080;28;19933;-57
2024/01/30 09:12:39;;;;;;;;;;;;;;;;;;4973547;28;19926;-59
2024/01/30 09:15:05;;;;;;;;;;;;;;;;;;4970558;28;19983;-58
2024/01/30 09:17:30;;;;;;;;;;;;;;;;;;4973482;28;19936;-57
2024/01/30 09:19:56;;;;;;;;;;;;;;;;;;4975740;28;19936;-58
2024/01/30 09:22:22;;;;;;;;;;;;;;;;;;4978338;28;20369;-58
2024/01/30 09:24:47;;;;;;;;;;;;;;;;;;5056345;28;19951;-57
2024/01/30 09:27:13;;;;;;;;;;;;;;;;;;5051044;28;19925;-57
2024/01/30 09:29:39;;;;;;;;;;;;;;;;;;5055553;28;20006;-57
2024/01/30 09:32:04;;;;;;;;;;;;;;;;;;5053404;28;20046;-57
2024/01/30 09:34:30;;;;;;;;;;;;;;;;;;5053716;28;20639;-57
2024/01/30 09:36:55;;;;;;;;;;;;;;;;;;5049347;28;19971;-57
2024/01/30 09:39:21;;;;;;;;;;;;;;;;;;5048855;28;19935;-57
2024/01/30 09:41:46;;;;;;;;;;;;;;;;;;5050781;28;19924;-57
2024/01/30 09:44:12;;;;;;;;;;;;;;;;;;5049001;28;20070;-57
2024/01/30 09:46:37;;;;;;;;;;;;;;;;;;5044969;28;19933;-54
2024/01/30 09:49:03;;;;;;;;;;;;;;;;;;5039905;28;19936;-57
2024/01/30 09:51:28;;;;;;;;;;;;;;;;;;5040621;28;20445;-57
2024/01/30 09:53:54;;;;;;;;;;;;;;;;;;5045822;28;20373;-57
2024/01/30 09:56:19;;;;;;;;;;;;;;;;;;5048333;28;19954;-55
2024/01/30 09:58:45;;;;;;;;;;;;;;;;;;5044735;28;20011;-57
2024/01/30 10:01:10;;;;;;;;;;;;;;;;;;5000875;28;19999;-57
2024/01/30 10:03:36;;;;;;;;;;;;;;;;;;5002724;28;19937;-59
2024/01/30 10:06:02;;;;;;;;;;;;;;;;;;5001359;28;19967;-58
2024/01/30 10:08:29;;;;;;;;;;;;;;;;;;5002253;28;21352;-59
2024/01/30 10:10:55;;;;;;;;;;;;;;;;;;5000508;28;19951;-59
2024/01/30 10:13:20;;;;;;;;;;;;;;;;;;5003238;28;20143;-58
2024/01/30 10:15:46;;;;;;;;;;;;;;;;;;5003528;28;19932;-61
2024/01/30 10:18:11;;;;;;;;;;;;;;;;;;5000195;28;20032;-58
2024/01/30 10:20:36;;;;;;;;;;;;;;;;;;5043478;28;20321;-58
2024/01/30 10:23:02;;;;;;;;;;;;;;;;;;5042751;28;19960;-59
2024/01/30 10:25:28;;;;;;;;;;;;;;;;;;5040206;28;20331;-59
2024/01/30 10:27:55;;;;;;;;;;;;;;;;;;5041998;28;19931;-59
2024/01/30 10:30:20;;;;;;;;;;;;;;;;;;5038767;28;20296;-59
2024/01/30 10:32:46;;;;;;;;;;;;;;;;;;5041667;28;19928;-59
2024/01/30 10:35:11;;;;;;;;;;;;;;;;;;5032740;28;19932;-59
2024/01/30 10:37:37;;;;;;;;;;;;;;;;;;5031555;28;20506;-59
2024/01/30 10:40:03;;;;;;;;;;;;;;;;;;5033175;28;20717;-57
2024/01/30 10:42:29;;;;;;;;;;;;;;;;;;5044656;28;19986;-57
2024/01/30 10:44:54;;;;;;;;;;;;;;;;;;5045326;28;20480;-57
2024/01/30 10:47:20;;;;;;;;;;;;;;;;;;5046365;28;20036;-57
2024/01/30 10:49:46;;;;;;;;;;;;;;;;;;5042358;28;19925;-56
2024/01/30 10:52:12;;;;;;;;;;;;;;;;;;5045209;28;20486;-56
2024/01/30 10:54:38;;;;;;;;;;;;;;;;;;5045844;28;19993;-56
2024/01/30 10:57:04;;;;;;;;;;;;;;;;;;5045484;28;20318;-57
2024/01/30 10:59:30;;;;;;;;;;;;;;;;;;5058758;28;19936;-57
2024/01/30 11:01:56;;;;;;;;;;;;;;;;;;5051024;28;19925;-57
2024/01/30 11:04:22;;;;;;;;;;;;;;;;;;5045998;28;19932;-57
2024/01/30 11:06:47;;;;;;;;;;;;;;;;;;5042982;28;20348;-56
2024/01/30 11:09:13;;;;;;;;;;;;;;;;;;5049751;28;19942;-57
2024/01/30 11:11:39;;;;;;;;;;;;;;;;;;5046472;28;20447;-57
2024/01/30 11:14:04;;;;;;;;;;;;;;;;;;5053640;28;20031;-57
2024/01/30 11:16:30;;;;;;;;;;;;;;;;;;5047316;28;19928;-56
2024/01/30 11:18:55;;;;;;;;;;;;;;;;;;5056457;28;20657;-57
2024/01/30 11:21:21;;;;;;;;;;;;;;;;;;5056128;28;20600;-55
2024/01/30 11:23:46;;;;;;;;;;;;;;;;;;5053120;28;20023;-57
2024/01/30 11:26:12;;;;;;;;;;;;;;;;;;5047746;28;20039;-56
2024/01/30 11:28:37;;;;;;;;;;;;;;;;;;5054178;28;19932;-57
2024/01/30 11:31:03;;;;;;;;;;;;;;;;;;5050521;28;19928;-57
2024/01/30 11:33:30;;;;;;;;;;;;;;;;;;5050288;28;19960;-58
2024/01/30 11:35:59;;;;;;;;;;;;;;;;;;5052491;28;19928;-57
2024/01/30 11:38:25;;;;;;;;;;;;;;;;;;5045601;28;19928;-57
2024/01/30 11:40:50;;;;;;;;;;;;;;;;;;5047480;28;20327;-56
2024/01/30 11:43:15;;;;;;;;;;;;;;;;;;5045084;28;20023;-57
2024/01/30 11:45:41;;;;;;;;;;;;;;;;;;5005739;28;19925;-57
2024/01/30 11:48:10;;;;;;;;;;;;;;;;;;5006196;28;19929;-57
2024/01/30 11:50:35;;;;;;;;;;;;;;;;;;5007936;28;20023;-57
2024/01/30 11:53:01;;;;;;;;;;;;;;;;;;5007833;28;19974;-58
2024/01/30 11:55:27;;;;;;;;;;;;;;;;;;5006472;28;19932;-56
2024/01/30 11:57:57;;;;;;;;;;;;;;;;;;5010818;28;19929;-57
2024/01/30 12:00:22;;;;;;;;;;;;;;;;;;5004701;28;19936;-57
2024/01/30 12:02:48;;;;;;;;;;;;;;;;;;5015967;28;21045;-57
2024/01/30 12:05:13;;;;;;;;;;;;;;;;;;5053878;28;20003;-57
2024/01/30 12:07:38;;;;;;;;;;;;;;;;;;5050811;28;19929;-57
2024/01/30 12:10:05;;;;;;;;;;;;;;;;;;5055066;28;19924;-57
2024/01/30 12:12:30;;;;;;;;;;;;;;;;;;5056162;28;19928;-57
2024/01/30 12:14:56;;;;;;;;;;;;;;;;;;5053150;28;19952;-57
2024/01/30 12:17:21;;;;;;;;;;;;;;;;;;5052860;28;19990;-57
2024/01/30 12:19:47;;;;;;;;;;;;;;;;;;5052098;28;19967;-54
2024/01/30 12:22:12;;;;;;;;;;;;;;;;;;5054113;28;19924;-57
2024/01/30 12:24:38;;;;;;;;;;;;;;;;;;5053584;28;19929;-57
2024/01/30 12:27:03;;;;;;;;;;;;;;;;;;5053679;28;20012;-56
2024/01/30 12:29:29;;;;;;;;;;;;;;;;;;5050442;28;19964;-57
2024/01/30 12:31:59;;;;;;;;;;;;;;;;;;5049154;28;20663;-57
2024/01/30 12:34:25;;;;;;;;;;;;;;;;;;5059257;28;20023;-57
2024/01/30 12:36:50;;;;;;;;;;;;;;;;;;5050172;28;20436;-57
2024/01/30 12:39:16;;;;;;;;;;;;;;;;;;5055529;28;20070;-57
2024/01/30 12:41:42;;;;;;;;;;;;;;;;;;5051482;28;19939;-57
2024/01/30 12:44:07;;;;;;;;;;;;;;;;;;5049707;28;19985;-58
2024/01/30 12:46:32;;;;;;;;;;;;;;;;;;5050807;28;20028;-56
2024/01/30 12:48:58;;;;;;;;;;;;;;;;;;5051276;28;19932;-53
2024/01/30 12:51:24;;;;;;;;;;;;;;;;;;5046881;28;19935;-55
2024/01/30 12:53:49;;;;;;;;;;;;;;;;;;5047202;28;20468;-57
2024/01/30 12:56:15;;;;;;;;;;;;;;;;;;5048163;28;20043;-57
2024/01/30 12:58:42;;;;;;;;;;;;;;;;;;5050623;28;20426;-57
2024/01/30 13:01:08;;;;;;;;;;;;;;;;;;5051994;28;20264;-57
2024/01/30 13:03:34;;;;;;;;;;;;;;;;;;5050650;28;19933;-57
2024/01/30 13:06:00;;;;;;;;;;;;;;;;;;5049055;28;19933;-57
2024/01/30 13:08:26;;;;;;;;;;;;;;;;;;5045962;28;20020;-57
2024/01/30 13:10:51;;;;;;;;;;;;;;;;;;5049263;28;19933;-58
2024/01/30 13:13:17;;;;;;;;;;;;;;;;;;5049785;28;20562;-57
2024/01/30 13:15:45;;;;;;;;;;;;;;;;;;5044130;28;19964;-59
2024/01/30 13:18:11;;;;;;;;;;;;;;;;;;5047018;28;20031;-60
2024/01/30 13:20:36;;;;;;;;;;;;;;;;;;5055006;28;20266;-60
2024/01/30 13:23:02;;;;;;;;;;;;;;;;;;5055852;28;19932;-58
2024/01/30 13:25:27;;;;;;;;;;;;;;;;;;5059400;28;19952;-56
2024/01/30 13:27:53;;;;;;;;;;;;;;;;;;5063714;28;19925;-58
2024/01/30 13:30:19;;;;;;;;;;;;;;;;;;5055412;28;20078;-58
2024/01/30 13:32:44;;;;;;;;;;;;;;;;;;5054565;28;19925;-57
2024/01/30 13:35:10;;;;;;;;;;;;;;;;;;5055253;28;20320;-58
2024/01/30 13:37:36;;;;;;;;;;;;;;;;;;5057389;28;20392;-60
2024/01/30 13:40:01;;;;;;;;;;;;;;;;;;5057792;28;20361;-57
2024/01/30 13:42:29;;;;;;;;;;;;;;;;;;5062332;28;19964;-58
2024/01/30 13:44:54;;;;;;;;;;;;;;;;;;5059680;28;20734;-58
2024/01/30 13:47:21;;;;;;;;;;;;;;;;;;5061679;28;19925;-58
2024/01/30 13:49:46;;;;;;;;;;;;;;;;;;5059985;28;19947;-57
2024/01/30 13:52:12;;;;;;;;;;;;;;;;;;5061150;28;20359;-59
2024/01/30 13:54:37;;;;;;;;;;;;;;;;;;5061595;28;20066;-60
2024/01/30 13:57:03;;;;;;;;;;;;;;;;;;5060145;28;20372;-57
2024/01/30 13:59:28;;;;;;;;;;;;;;;;;;5064086;28;19936;-58
2024/01/30 14:01:54;;;;;;;;;;;;;;;;;;5062751;28;20017;-57
2024/01/30 14:04:20;;;;;;;;;;;;;;;;;;5052609;28;19975;-57
2024/01/30 14:06:45;;;;;;;;;;;;;;;;;;5061503;28;19932;-56
2024/01/30 14:09:18;;;;;;;;;;;;;;;;;;5061946;28;19970;-59
2024/01/30 14:11:43;;;;;;;;;;;;;;;;;;5062967;28;19928;-58
2024/01/30 14:14:09;;;;;;;;;;;;;;;;;;5061670;28;19990;-59
2024/01/30 14:16:35;;;;;;;;;;;;;;;;;;5059190;28;19964;-59
2024/01/30 14:19:00;;;;;;;;;;;;;;;;;;5059091;28;20190;-59
2024/01/30 14:21:26;;;;;;;;;;;;;;;;;;5057770;28;20005;-58
2024/01/30 14:23:51;;;;;;;;;;;;;;;;;;5061989;28;19929;-58
2024/01/30 14:26:18;;;;;;;;;;;;;;;;;;5060901;28;19959;-58
2024/01/30 14:28:43;;;;;;;;;;;;;;;;;;5063450;28;19932;-59
2024/01/30 14:31:09;;;;;;;;;;;;;;;;;;4995765;28;19934;-59
2024/01/30 14:33:34;;;;;;;;;;;;;;;;;;4995398;28;20382;-58
2024/01/30 14:36:00;;;;;;;;;;;;;;;;;;4992653;28;19925;-60
2024/01/30 14:38:25;;;;;;;;;;;;;;;;;;4994468;28;20028;-59
2024/01/30 14:40:51;;;;;;;;;;;;;;;;;;4997170;28;20416;-59
2024/01/30 14:43:16;;;;;;;;;;;;;;;;;;4996878;28;20020;-60
2024/01/30 14:45:42;;;;;;;;;;;;;;;;;;4984432;28;20012;-59
2024/01/30 14:48:08;;;;;;;;;;;;;;;;;;4986305;28;20390;-58
2024/01/30 14:50:34;;;;;;;;;;;;;;;;;;5049073;28;19978;-59
2024/01/30 14:52:59;;;;;;;;;;;;;;;;;;5045756;28;19929;-58
2024/01/30 14:55:25;;;;;;;;;;;;;;;;;;5047502;28;20387;-59
2024/01/30 14:57:50;;;;;;;;;;;;;;;;;;5046603;28;19964;-58
2024/01/30 15:00:16;;;;;;;;;;;;;;;;;;5046948;28;20369;-59
2024/01/30 15:02:41;;;;;;;;;;;;;;;;;;5046042;28;19932;-59
2024/01/30 15:05:07;;;;;;;;;;;;;;;;;;5049614;28;20040;-59
2024/01/30 15:07:33;;;;;;;;;;;;;;;;;;5046226;28;20369;-59
2024/01/30 15:10:04;;;;;;;;;;;;;;;;;;5047709;28;19925;-59
2024/01/30 15:12:30;;;;;;;;;;;;;;;;;;5046772;28;19968;-59
2024/01/30 15:14:55;;;;;;;;;;;;;;;;;;5045759;28;20544;-58
2024/01/30 15:17:21;;;;;;;;;;;;;;;;;;5046165;28;19977;-58
2024/01/30 15:19:47;;;;;;;;;;;;;;;;;;5046814;28;19925;-59
2024/01/30 15:22:12;;;;;;;;;;;;;;;;;;5044670;28;19929;-57
2024/01/30 15:24:38;;;;;;;;;;;;;;;;;;5044185;28;20043;-58
2024/01/30 15:27:03;;;;;;;;;;;;;;;;;;5050360;28;19964;-59
2024/01/30 15:29:29;;;;;;;;;;;;;;;;;;5049780;28;19932;-58
2024/01/30 15:31:54;;;;;;;;;;;;;;;;;;5051674;28;20027;-45
2024/01/30 15:34:20;;;;;;;;;;;;;;;;;;5048968;28;19932;-45
2024/01/30 15:36:46;;;;;;;;;;;;;;;;;;5049418;28;19936;-45
2024/01/30 15:39:13;;;;;;;;;;;;;;;;;;5052314;28;20023;-46
2024/01/30 15:41:38;;;;;;;;;;;;;;;;;;5050994;28;20400;-44
2024/01/30 15:44:04;;;;;;;;;;;;;;;;;;5050161;28;19964;-44
2024/01/30 15:46:29;;;;;;;;;;;;;;;;;;5047681;28;19936;-44
2024/01/30 15:48:55;;;;;;;;;;;;;;;;;;5048995;28;20028;-47
2024/01/30 15:51:20;;;;;;;;;;;;;;;;;;5049877;28;20023;-43
2024/01/30 15:53:46;;;;;;;;;;;;;;;;;;5048856;28;20019;-48
2024/01/30 15:56:11;;;;;;;;;;;;;;;;;;5048367;28;19933;-44
2024/01/30 15:58:37;;;;;;;;;;;;;;;;;;5048807;28;19925;-47
2024/01/30 16:01:02;;;;;;;;;;;;;;;;;;5049868;28;19983;-45
2024/01/30 16:03:28;;;;;;;;;;;;;;;;;;5049017;28;19961;-44
2024/01/30 16:05:54;;;;;;;;;;;;;;;;;;5049186;28;20206;-47
2024/01/30 16:08:20;;;;;;;;;;;;;;;;;;5055527;28;19967;-46
2024/01/30 16:10:45;;;;;;;;;;;;;;;;;;5053662;28;20038;-46
2024/01/30 16:13:11;;;;;;;;;;;;;;;;;;5049677;28;20062;-45
2024/01/30 16:15:36;;;;;;;;;;;;;;;;;;5049466;28;19979;-45
2024/01/30 16:18:02;;;;;;;;;;;;;;;;;;5049749;28;19929;-45
2024/01/30 16:20:27;;;;;;;;;;;;;;;;;;5049574;28;19932;-45
2024/01/30 16:22:55;;;;;;;;;;;;;;;;;;5048888;28;19991;-44
2024/01/30 16:25:22;;;;;;;;;;;;;;;;;;5046965;28;19925;-43
2024/01/30 16:27:48;;;;;;;;;;;;;;;;;;5051113;28;19924;-45
2024/01/30 16:30:14;;;;;;;;;;;;;;;;;;5047452;28;19997;-43
2024/01/30 16:32:39;;;;;;;;;;;;;;;;;;5049068;28;19932;-44
2024/01/30 16:35:05;;;;;;;;;;;;;;;;;;5047492;28;20016;-44